Aviation Digital Data Service (ADDS)

Output produced by METARs form (0645 UTC 20 October 2018)
found at http://www.aviationweather.gov/metar/data/
 
FMMI 200630Z 09005KT 020V140 9999 BKN020 25/15 Q1021 NOSIG
TAF FMMI 200500Z 2006/2112 10007KT 9999 FEW017 BKN020 
     BECMG 2008/2010 30010KT 
     PROB30 
     TEMPO 2015/2022 4500 TSRA 
     BECMG 2017/2020 VRB04KT 
     PROB30 2101/2105 2000 BR
       
FMNA 200600Z 00000KT 9999 BKN020 27/20 Q1015
TAF FMNA 200500Z 2006/2106 10008KT 9999 SCT020 SCT040
       
FMNM 200600Z 32008KT 9999 FEW020 30/22 Q1014 NOSIG
TAF FMNM 200500Z 2006/2106 10005KT 9999 FEW020 SCT040 
     BECMG 2007/2010 32010KT
       
FMNN 200600Z 30004KT 9999 -RA BKN020 27/24 Q1015
TAF FMNN 200500Z 2006/2106 26010KT 9999 SCT020 SCT040 
     PROB40 
     TEMPO 2012/2020 4500 SHRA 
     BECMG 2017/2020 04006KT
       
FMMS 200600Z 07004KT 9999 VCSH FEW017 BKN040 28/23 Q1016
TAF FMMS 200500Z 2006/2106 02010KT 9999 SCT017 SCT040 
     PROB40 
     TEMPO 2010/2022 4000 TSRA
       
FMMT 200600Z 22004KT 160V250 9999 VCSH FEW007 SCT020TCU BKN033 26/24 Q1016 NOSIG
TAF FMMT 200500Z 2006/2106 08010KT 9999 FEW007 SCT017TCU BKN033 
     TEMPO 2006/2008 4500 SHRA 
     PROB40 
     TEMPO 2010/2103 4000 TSRA
       
FMSD 200600Z 14004KT 9999 FEW020 BKN040 24/16 Q1016
TAF FMSD 200500Z 2006/2106 00000KT 9999 FEW016 BKN033 
     BECMG 2007/2010 18010KT
       
TAF FMST 200500Z 2006/2106 24012KT 9999 FEW023 
     BECMG 2017/2020 16007KT